メインページ
METAR-TAF:

METAR-TAF

空港 :

エスファハーン・シャヒード・ベヘシュティー国際空港

エスファハーン, イラン

緯度: 32-28N, 経度: 051-43E, 海抜: 1590m

現時点の気象観測

当レポートは30分前の17:00(UTC)に作成
北東の風 4kt
気温 4°C
湿度 30%
気圧 1023 hPa
視程10km以上
1,500メートル以下は雲なし、積乱雲なし

METAR: OIFM 171700Z 05004KT CAVOK 04/M12 Q1023 A3021

時間: 21:00 (17:30 UTC)

予報

当レポートは6時間30分前の11:00(UTC)に作成
予報は17日の 12時(UTC)から 18日の 18時(UTC)まで有効
東/北東の風 6kt
視程: 7000m
高度4500ftの雲はほとんどない
高度10000ftの雲は散在している
17日の 21時(UTC)から 17日の 23時(UTC)まで徐々に
東/南東の風 10kt
高度4000ftの雲はほとんどない, 積乱雲.
高度8000ftの雲は散在している
高度12000ftの千切れ雲あり
18日の 00時(UTC)から 18日の 09時(UTC)まで一時的に
視程: 5000m
高度3500ftの雲はほとんどない, 積乱雲.
高度4000ftの雲は散在している
高度8000ftの曇り
にわか雨, 靄

TAF: OIFM 171100Z 1712/1818 06003MPS 7000 FEW045 SCT100 BECMG 1721/1723 12005MPS FEW040CB SCT080 BKN120 TEMPO 1800/1809 5000 SHRA BR FEW035CB SCT040 OVC080

4,000以上の空港の気象観測と天気予報(METAR報とTAF報)

利用可能な観測所は地図上に黄色い丸と赤い丸で示す。

丸の上にカーソルを重ねると観測所名を参照できる。

次にクリックすると気象観測と天気予報を参照できる。

マップの切り替え:黒色「×」印の緑ボタンをクリックして拡大、「-」印の緑ボタンをクリックして縮小、緑色の三角印をクリックして隣りの地図に切り替え


METAR-TAF: